Idman, Idaho
Current Conditions -  °F | °C
As of 10:53 PM on Sunday 21 Dec 2014 (Local Time) from KRXE Reporting Station
Few Clouds Few Clouds  
Wind Chill: -5°   Ceiling: Unl
Heat Index: -1°   Visibility: 10mi
Dew Point: -1°   Wind: 10mph
Humidity: 96%   Direction: 210°SSW
Pressure: 29.92"   Gusts: NA
Location:  44.2396°N, 112.579°W
Report Text: KRXE 220553Z AUTO 21009KT 10SM FEW100 M01/M01 A2992 RMK AO2 SLP145 T10061011 10039 21011 51015
Loading
Personal Weather Stations






























Interactive Weather Map New forecast layout! Learn more

10-Day Weather Forecast

Advertisements
Track Severe Weather on mobile